createdAt,value
2023-03-13T00:00:07.140Z,100011.59
2023-03-13T00:04:09.124Z,100012.50
2023-03-13T00:08:10.714Z,100008.34
2023-03-13T00:12:12.250Z,100002.44
2023-03-13T00:16:16.666Z,99994.94
2023-03-13T00:20:18.449Z,99992.38
2023-03-13T00:24:20.064Z,99990.69
2023-03-13T00:28:21.585Z,99977.09
2023-03-13T00:32:23.298Z,99972.06
2023-03-13T00:36:28.836Z,99953.31
2023-03-13T00:40:30.521Z,99950.75
2023-03-13T00:44:32.103Z,99952.47
2023-03-13T00:48:34.170Z,99941.41
2023-03-13T00:52:35.743Z,99930.38
2023-03-13T00:56:37.353Z,99927.88
2023-03-13T01:00:39.065Z,99922.75
2023-03-13T01:04:40.603Z,99922.78
2023-03-13T01:08:42.198Z,99913.53
2023-03-13T01:12:43.765Z,99899.13
2023-03-13T01:16:45.310Z,99885.63
2023-03-13T01:20:46.888Z,99883.13
2023-03-13T01:24:52.359Z,99875.47
2023-03-13T01:28:55.606Z,99865.22
2023-03-13T01:32:57.986Z,99860.09
2023-03-13T01:36:59.500Z,99855.91
2023-03-13T01:41:01.300Z,99850.00
2023-03-13T01:45:02.866Z,99844.03
2023-03-13T01:49:14.278Z,99841.53
2023-03-13T01:53:40.171Z,99835.59
2023-03-13T01:57:47.531Z,99819.44
2023-03-13T02:01:50.945Z,99816.13
2023-03-13T02:05:53.237Z,99814.50
2023-03-13T02:09:56.879Z,99801.75
2023-03-13T02:13:59.170Z,99798.34
2023-03-13T02:18:01.035Z,99792.44
2023-03-13T02:22:18.171Z,99781.34
2023-03-13T02:26:19.768Z,99781.28
2023-03-13T02:30:21.599Z,99787.31
2023-03-13T02:34:28.621Z,99773.63
2023-03-13T02:38:38.138Z,99775.31
2023-03-13T02:42:41.999Z,99771.84
2023-03-13T02:46:50.330Z,99763.28
2023-03-13T02:50:53.714Z,99747.06
2023-03-13T02:55:06.627Z,99744.50
2023-03-13T02:59:08.235Z,99748.00
2023-03-13T03:03:13.775Z,99740.38
2023-03-13T03:07:15.428Z,99731.06
2023-03-13T03:11:17.339Z,99724.22
2023-03-13T03:15:22.641Z,99723.44
2023-03-13T03:19:24.457Z,99728.59
2023-03-13T03:23:26.128Z,99719.19
2023-03-13T03:27:27.925Z,99714.84
2023-03-13T03:31:30.479Z,99715.63
2023-03-13T03:35:33.905Z,99709.59
2023-03-13T03:39:36.535Z,99698.50
2023-03-13T03:43:40.272Z,99708.66
2023-03-13T03:47:43.948Z,99704.41
2023-03-13T03:51:45.963Z,99694.94
2023-03-13T03:55:49.852Z,99687.22
2023-03-13T03:59:51.634Z,99708.56
2023-03-13T04:03:53.264Z,99698.22
2023-03-13T04:07:55.136Z,99705.00
2023-03-13T04:11:56.746Z,99692.16
2023-03-13T04:15:58.578Z,99694.84
2023-03-13T04:20:00.470Z,99698.31
2023-03-13T04:24:04.207Z,99692.47
2023-03-13T04:28:07.412Z,99673.66
2023-03-13T04:32:14.986Z,99678.88
2023-03-13T04:36:42.989Z,99679.66
2023-03-13T04:41:03.235Z,99678.00
2023-03-13T04:45:05.351Z,99665.28
2023-03-13T04:49:15.406Z,99662.78
2023-03-13T04:53:35.663Z,99662.91
2023-03-13T04:57:56.014Z,99659.44
2023-03-13T05:02:13.311Z,99663.81
2023-03-13T05:06:38.335Z,99639.13
2023-03-13T05:10:54.231Z,99650.31
2023-03-13T05:15:14.433Z,99641.81
2023-03-13T05:19:48.373Z,99641.81
2023-03-13T05:24:05.429Z,99628.22
2023-03-13T05:28:25.806Z,99619.75
2023-03-13T05:32:39.648Z,99612.97
2023-03-13T05:37:13.795Z,99601.91
2023-03-13T05:41:27.386Z,99601.13
2023-03-13T05:45:42.737Z,99608.88
2023-03-13T05:50:06.395Z,99617.47
2023-03-13T05:54:31.122Z,99601.31
2023-03-13T05:58:52.976Z,99588.63
2023-03-13T06:03:14.380Z,99596.34
2023-03-13T06:07:19.354Z,99586.25
2023-03-13T06:11:22.206Z,99589.84
2023-03-13T06:15:24.203Z,99584.78
2023-03-13T06:19:43.643Z,99571.16
2023-03-13T06:23:45.304Z,99563.56
2023-03-13T06:27:46.792Z,99572.13
2023-03-13T06:31:48.481Z,99585.84
2023-03-13T06:35:56.744Z,99587.59
2023-03-13T06:39:58.591Z,99592.88
2023-03-13T06:44:00.109Z,99580.09
2023-03-13T06:48:01.821Z,99567.38
2023-03-13T06:52:03.412Z,99560.69
2023-03-13T06:56:05.451Z,99565.97
2023-03-13T07:00:08.351Z,99567.81
2023-03-13T07:04:12.963Z,99553.38
2023-03-13T07:08:14.623Z,99544.97
2023-03-13T07:12:17.201Z,99521.09
2023-03-13T07:16:18.807Z,99516.16
2023-03-13T07:20:20.463Z,99524.88
2023-03-13T07:24:22.088Z,99524.13
2023-03-13T07:28:24.524Z,99527.75
2023-03-13T07:32:26.144Z,99533.13
2023-03-13T07:36:28.102Z,99557.19
2023-03-13T07:40:29.657Z,99552.13
2023-03-13T07:44:31.285Z,99559.06
2023-03-13T07:48:35.411Z,99545.50
2023-03-13T07:52:36.940Z,99549.91
2023-03-13T07:56:38.823Z,99556.06
2023-03-13T08:00:40.350Z,99556.16
2023-03-13T08:04:41.982Z,99571.53
2023-03-13T08:08:43.642Z,99571.53
2023-03-13T08:12:45.128Z,99570.03
2023-03-13T08:16:46.755Z,99558.09
2023-03-13T08:20:48.429Z,99569.31
2023-03-13T08:24:50.050Z,99571.97
2023-03-13T08:29:04.406Z,99573.78
2023-03-13T08:33:07.805Z,99573.75
2023-03-13T08:37:09.447Z,99586.63
2023-03-13T08:41:12.233Z,99595.22
2023-03-13T08:45:13.901Z,99586.69
2023-03-13T08:49:17.475Z,99592.69
2023-03-13T08:53:18.993Z,99589.22
2023-03-13T08:57:20.559Z,99595.19
2023-03-13T09:01:25.009Z,99602.84
2023-03-13T09:05:26.589Z,99592.56
2023-03-13T09:09:28.478Z,99581.59
2023-03-13T09:13:32.059Z,99573.34
2023-03-13T09:17:33.683Z,99571.81
2023-03-13T09:21:35.797Z,99560.75
2023-03-13T09:25:38.654Z,99570.28
2023-03-13T09:29:41.571Z,99573.66
2023-03-13T09:33:44.700Z,99573.53
2023-03-13T09:37:46.347Z,99577.84
2023-03-13T09:42:12.210Z,99573.53
2023-03-13T09:46:21.986Z,99557.19
2023-03-13T09:50:31.394Z,99563.41
2023-03-13T09:54:53.201Z,99553.25
2023-03-13T09:59:22.536Z,99531.84
2023-03-13T10:03:29.569Z,99519.91
2023-03-13T10:07:31.226Z,99515.66
2023-03-13T10:11:47.724Z,99502.03
2023-03-13T10:15:55.167Z,99500.41
2023-03-13T10:20:01.546Z,99498.69
2023-03-13T10:24:17.892Z,99484.91
2023-03-13T10:28:20.246Z,99487.50
2023-03-13T10:32:21.923Z,99472.03
2023-03-13T10:36:23.720Z,99471.13
2023-03-13T10:40:27.495Z,99467.69
2023-03-13T10:44:33.291Z,99454.81
2023-03-13T10:48:37.534Z,99448.69
2023-03-13T10:52:47.696Z,99425.38
2023-03-13T10:56:50.375Z,99431.38
2023-03-13T11:00:51.932Z,99402.84
2023-03-13T11:04:54.085Z,99395.94
2023-03-13T11:09:16.138Z,99393.34
2023-03-13T11:13:36.571Z,99382.13
2023-03-13T11:17:41.005Z,99360.50
2023-03-13T11:21:57.601Z,99343.22
2023-03-13T11:26:10.212Z,99345.88
2023-03-13T11:30:27.951Z,99345.13
2023-03-13T11:34:42.720Z,99333.88
2023-03-13T11:38:49.842Z,99316.53
2023-03-13T11:43:25.139Z,99294.72
2023-03-13T11:47:53.946Z,99289.47
2023-03-13T11:52:16.804Z,99280.84
2023-03-13T11:56:27.348Z,99268.81
2023-03-13T12:00:35.297Z,99261.09
2023-03-13T12:04:47.401Z,99257.53
2023-03-13T12:08:58.568Z,99260.03
2023-03-13T12:13:23.908Z,99246.81
2023-03-13T12:17:46.533Z,99213.09
2023-03-13T12:21:53.601Z,99200.25
2023-03-13T12:26:01.146Z,99188.72
2023-03-13T12:30:26.370Z,99178.13
2023-03-13T12:34:35.920Z,99176.28
2023-03-13T12:38:43.998Z,99162.25
2023-03-13T12:42:55.214Z,99148.13
2023-03-13T12:47:28.132Z,99136.97
2023-03-13T12:51:37.532Z,99140.56
2023-03-13T12:55:56.241Z,99129.28
2023-03-13T13:00:05.487Z,99122.19
2023-03-13T13:04:12.122Z,99123.66
2023-03-13T13:08:25.574Z,99107.94
2023-03-13T13:12:27.292Z,99090.50
2023-03-13T13:16:30.119Z,99078.06
2023-03-13T13:20:39.439Z,99060.53
2023-03-13T13:24:52.309Z,99036.91
2023-03-13T13:28:54.998Z,99030.38
2023-03-13T13:33:34.704Z,99012.56
2023-03-13T13:37:36.496Z,99006.22
2023-03-13T13:41:38.215Z,98985.59
2023-03-13T13:46:16.224Z,98974.44
2023-03-13T13:50:22.910Z,98967.59
2023-03-13T13:54:32.248Z,98957.84
2023-03-13T13:58:39.406Z,98942.66
2023-03-13T14:02:49.742Z,98937.31
2023-03-13T14:06:52.928Z,98933.06
2023-03-13T14:11:04.681Z,98912.38
2023-03-13T14:15:20.960Z,98895.50
2023-03-13T14:19:42.859Z,98892.41
2023-03-13T14:23:46.428Z,98897.09
2023-03-13T14:27:49.459Z,98878.75
2023-03-13T14:31:59.496Z,98868.63
2023-03-13T14:36:01.915Z,98854.22
2023-03-13T14:40:24.262Z,98850.47
2023-03-13T14:44:30.035Z,98821.72
2023-03-13T14:48:33.410Z,98799.50
2023-03-13T14:52:36.958Z,98784.22
2023-03-13T14:56:43.180Z,98762.69
2023-03-13T15:00:46.378Z,98766.47
2023-03-13T15:05:01.440Z,98764.94
2023-03-13T15:09:21.887Z,98744.81
2023-03-13T15:13:25.218Z,98739.38
2023-03-13T15:17:28.379Z,98750.22
2023-03-13T15:21:32.497Z,98743.84
2023-03-13T15:25:34.071Z,98744.75
2023-03-13T15:29:35.718Z,98751.50
2023-03-13T15:33:37.432Z,98746.25
2023-03-13T15:37:39.124Z,98756.88
2023-03-13T15:41:40.636Z,98761.34
2023-03-13T15:45:45.053Z,98740.09
2023-03-13T15:49:46.991Z,98721.00
2023-03-13T15:53:48.646Z,98719.16
2023-03-13T15:57:50.769Z,98708.22
2023-03-13T16:01:52.405Z,98707.56
2023-03-13T16:05:55.635Z,98710.34
2023-03-13T16:09:57.220Z,98771.06
2023-03-13T16:13:58.782Z,98759.19
2023-03-13T16:18:01.019Z,98762.28
2023-03-13T16:22:02.661Z,98755.50
2023-03-13T16:26:11.938Z,98731.94
2023-03-13T16:30:18.446Z,98741.88
2023-03-13T16:34:20.000Z,98747.25
2023-03-13T16:38:22.376Z,98766.47
2023-03-13T16:42:24.001Z,98761.53
2023-03-13T16:46:31.910Z,98757.53
2023-03-13T16:50:38.016Z,98722.53
2023-03-13T16:54:39.545Z,98732.25
2023-03-13T16:58:41.092Z,98775.56
2023-03-13T17:02:42.624Z,98764.59
2023-03-13T17:06:47.790Z,98750.94
2023-03-13T17:10:49.405Z,98734.84
2023-03-13T17:14:50.924Z,98743.63
2023-03-13T17:18:53.596Z,98756.75
2023-03-13T17:22:56.446Z,98733.78
2023-03-13T17:26:58.215Z,98723.81
2023-03-13T17:30:59.790Z,98708.47
2023-03-13T17:35:01.351Z,98711.03
2023-03-13T17:39:06.231Z,98712.75
2023-03-13T17:43:08.701Z,98714.41
2023-03-13T17:47:16.409Z,98706.66
2023-03-13T17:51:24.095Z,98690.38
2023-03-13T17:55:25.706Z,98692.88
2023-03-13T17:59:29.318Z,98692.81
2023-03-13T18:03:31.163Z,98667.91
2023-03-13T18:07:32.857Z,98646.63
2023-03-13T18:11:36.879Z,98673.38
2023-03-13T18:15:38.492Z,98692.25
2023-03-13T18:19:40.054Z,98693.19
2023-03-13T18:23:41.670Z,98652.84
2023-03-13T18:27:43.673Z,98636.53
2023-03-13T18:31:45.304Z,98659.66
2023-03-13T18:35:47.065Z,98694.84
2023-03-13T18:39:49.947Z,98706.84
2023-03-13T18:43:52.151Z,98700.81
2023-03-13T18:47:54.246Z,98690.41
2023-03-13T18:51:55.788Z,98695.63
2023-03-13T18:56:04.955Z,98699.94
2023-03-13T19:00:15.546Z,98723.97
2023-03-13T19:04:18.706Z,98794.25
2023-03-13T19:08:20.329Z,98835.47
2023-03-13T19:12:21.871Z,98847.59
2023-03-13T19:16:27.213Z,98893.94
2023-03-13T19:20:28.890Z,98907.56
2023-03-13T19:24:30.422Z,98922.03
2023-03-13T19:28:31.965Z,98933.88
2023-03-13T19:32:33.593Z,98904.63
2023-03-13T19:36:38.341Z,98887.47
2023-03-13T19:40:39.965Z,98870.38
2023-03-13T19:44:41.993Z,98892.66
2023-03-13T19:48:43.551Z,98896.97
2023-03-13T19:52:45.794Z,98903.06
2023-03-13T19:56:48.718Z,98893.69
2023-03-13T20:00:50.477Z,98875.72
2023-03-13T20:04:52.038Z,98820.97
2023-03-13T20:08:55.829Z,98786.78
2023-03-13T20:12:57.719Z,98773.06
2023-03-13T20:16:59.365Z,98772.22
2023-03-13T20:21:01.027Z,98756.78
2023-03-13T20:25:03.256Z,98749.13
2023-03-13T20:29:04.821Z,98751.66
2023-03-13T20:33:06.606Z,98728.56
2023-03-13T20:37:08.219Z,98708.00
2023-03-13T20:41:11.117Z,98713.13
2023-03-13T20:45:12.696Z,98696.00
2023-03-13T20:49:14.385Z,98722.53
2023-03-13T20:53:15.897Z,98743.06
2023-03-13T20:57:19.469Z,98746.47
2023-03-13T21:01:22.422Z,98722.47
2023-03-13T21:05:24.068Z,98742.97
2023-03-13T21:09:25.636Z,98718.16
2023-03-13T21:13:27.167Z,98722.44
2023-03-13T21:17:28.824Z,98739.53
2023-03-13T21:21:30.496Z,98743.78
2023-03-13T21:25:32.049Z,98740.38
2023-03-13T21:29:33.654Z,98749.78
2023-03-13T21:33:35.202Z,98745.50
2023-03-13T21:37:36.856Z,98741.22
2023-03-13T21:41:38.394Z,98742.94
2023-03-13T21:45:39.998Z,98730.09
2023-03-13T21:49:41.641Z,98724.97
2023-03-13T21:53:44.424Z,98701.03
2023-03-13T21:57:46.139Z,98700.16
2023-03-13T22:01:48.300Z,98702.72
2023-03-13T22:05:50.227Z,98717.28
2023-03-13T22:09:51.805Z,98689.91
2023-03-13T22:13:53.392Z,98702.72
2023-03-13T22:17:55.069Z,98711.28
2023-03-13T22:21:56.632Z,98724.09
2023-03-13T22:25:59.317Z,98726.66
2023-03-13T22:30:00.855Z,98736.09
2023-03-13T22:34:02.424Z,98713.81
2023-03-13T22:38:05.042Z,98704.41
2023-03-13T22:42:06.822Z,98688.13
2023-03-13T22:46:10.301Z,98683.88
2023-03-13T22:50:12.804Z,98656.50
2023-03-13T22:54:14.376Z,98660.78
2023-03-13T22:58:15.969Z,98683.91
2023-03-13T23:02:17.503Z,98673.59
2023-03-13T23:06:22.967Z,98691.56
2023-03-13T23:10:24.482Z,98696.69
2023-03-13T23:14:29.060Z,98690.69
2023-03-13T23:18:30.940Z,98712.91
2023-03-13T23:22:34.582Z,98719.69
2023-03-13T23:26:36.321Z,98716.31
2023-03-13T23:30:38.104Z,98732.56
2023-03-13T23:34:39.653Z,98771.03
2023-03-13T23:38:41.327Z,98737.66
2023-03-13T23:42:46.983Z,98757.31
2023-03-13T23:46:48.511Z,98763.28
2023-03-13T23:50:50.014Z,98776.94
2023-03-13T23:54:52.510Z,98769.22
2023-03-13T23:58:54.558Z,98768.38
